Time;durP1;ratioP1;P1;durP2;ratioP2;P2;SDS_P1;SDS_P2;PMS_P1;PMS_P2;Temp;Humidity;BMP_temperature;BMP_pressure;BME280_temperature;BME280_humidity;BME280_pressure;Samples;Min_cycle;Max_cycle;Signal;HPM_P1;HPM_P2
2022/06/16 00:00:28;;;;;;;12.37;6.53;;;22.70;61.10;;;;;;5047486;28;20441;-68
2022/06/16 00:02:54;;;;;;;7.57;6.97;;;22.60;81.00;;;;;;5048164;28;20923;-68
2022/06/16 00:05:23;;;;;;;9.17;7.00;;;22.60;62.90;;;;;;5048919;28;20440;-68
2022/06/16 00:07:49;;;;;;;7.20;6.50;;;22.50;64.00;;;;;;5048240;28;20174;-68
2022/06/16 00:10:16;;;;;;;7.13;6.43;;;22.50;64.50;;;;;;5047889;28;20448;-70
2022/06/16 00:12:42;;;;;;;7.40;6.40;;;22.50;65.90;;;;;;5048123;28;20409;-68
2022/06/16 00:15:12;;;;;;;11.03;6.90;;;22.40;66.30;;;;;;5048464;28;20509;-67
2022/06/16 00:17:37;;;;;;;13.97;7.93;;;22.40;67.30;;;;;;5047454;28;20792;-67
2022/06/16 00:20:04;;;;;;;7.20;6.50;;;22.30;69.00;;;;;;5038832;28;20484;-68
2022/06/16 00:22:32;;;;;;;7.27;6.57;;;22.20;69.80;;;;;;5031965;28;20233;-68
2022/06/16 00:24:57;;;;;;;7.93;7.13;;;22.20;71.40;;;;;;5034011;28;20410;-68
2022/06/16 00:27:23;;;;;;;16.40;6.60;;;22.20;72.60;;;;;;5033951;28;20707;-68
2022/06/16 00:29:49;;;;;;;8.40;6.63;;;22.20;74.20;;;;;;5031957;28;20192;-67
2022/06/16 00:32:15;;;;;;;7.60;6.90;;;22.20;75.50;;;;;;5027994;28;20654;-67
2022/06/16 00:34:41;;;;;;;7.40;6.70;;;22.10;75.40;;;;;;5029197;28;20191;-68
2022/06/16 00:37:06;;;;;;;7.17;6.47;;;22.10;76.20;;;;;;5028445;28;20176;-68
2022/06/16 00:39:32;;;;;;;13.77;7.27;;;22.00;77.10;;;;;;5028114;28;20207;-68
2022/06/16 00:42:11;;;;;;;11.10;7.83;;;21.90;78.10;;;;;;5029140;28;20191;-68
2022/06/16 00:44:40;;;;;;;9.50;6.67;;;21.90;79.30;;;;;;5028995;28;20619;-66
2022/06/16 00:47:06;;;;;;;9.30;8.13;;;21.70;79.40;;;;;;5027858;28;20418;-68
2022/06/16 00:49:35;;;;;;;10.00;7.03;;;21.80;80.90;;;;;;5028202;28;20448;-68
2022/06/16 00:52:05;;;;;;;8.57;7.67;;;21.80;81.70;;;;;;5027808;28;20266;-68
2022/06/16 00:54:35;;;;;;;7.30;6.60;;;21.80;83.10;;;;;;5027773;28;20417;-66
2022/06/16 00:57:13;;;;;;;7.57;6.80;;;21.90;83.50;;;;;;5028128;28;20414;-66
2022/06/16 00:59:39;;;;;;;9.00;6.87;;;21.90;84.70;;;;;;5040468;28;20441;-67
2022/06/16 01:02:06;;;;;;;10.27;6.93;;;21.80;85.40;;;;;;5047806;28;20506;-67
2022/06/16 01:07:19;;;;;;;7.83;6.90;;;21.90;85.10;;;;;;5047700;28;20460;-67
2022/06/16 01:09:45;;;;;;;11.23;6.50;;;21.80;85.90;;;;;;5047746;28;20489;-67
2022/06/16 01:15:22;;;;;;;7.80;7.07;;;21.70;86.80;;;;;;5048390;28;20252;-67
2022/06/16 01:17:50;;;;;;;9.63;7.20;;;21.70;88.30;;;;;;5048616;28;20404;-67
2022/06/16 01:20:40;;;;;;;6.87;6.20;;;21.70;89.80;;;;;;5040730;28;20580;-67
2022/06/16 01:23:43;;;;;;;12.97;7.07;;;21.60;90.30;;;;;;5027045;28;20508;-67
2022/06/16 01:26:18;;;;;;;8.40;7.60;;;21.50;90.80;;;;;;5031925;28;20410;-67
2022/06/16 01:28:55;;;;;;;8.63;7.73;;;21.50;91.50;;;;;;5032098;28;20476;-67
2022/06/16 01:31:27;;;;;;;13.93;7.20;;;21.40;91.70;;;;;;5031808;28;20743;-68
2022/06/16 01:34:36;;;;;;;8.47;7.40;;;21.40;92.00;;;;;;5032286;28;20485;-66
2022/06/16 01:37:25;;;;;;;10.83;7.80;;;21.30;92.10;;;;;;5020471;28;20425;-66
2022/06/16 01:40:05;;;;;;;8.07;6.73;;;21.30;93.00;;;;;;5051988;22;20537;-67
2022/06/16 01:42:53;;;;;;;17.83;8.50;;;21.40;93.90;;;;;;5051127;28;20453;-68
2022/06/16 01:45:37;;;;;;;9.13;7.77;;;21.40;94.30;;;;;;5051035;28;20388;-69
2022/06/16 01:48:05;;;;;;;13.90;8.30;;;21.30;95.10;;;;;;5050498;28;20471;-67
2022/06/16 01:50:47;;;;;;;9.70;8.73;;;21.30;95.70;;;;;;5051161;28;20461;-68
2022/06/16 01:53:18;;;;;;;8.73;7.90;;;21.20;96.40;;;;;;5051559;28;20489;-67
2022/06/16 01:56:13;;;;;;;8.00;7.37;;;21.10;97.20;;;;;;5051971;28;20722;-68
2022/06/16 01:58:42;;;;;;;14.70;7.77;;;21.00;98.00;;;;;;5055818;28;20624;-69
2022/06/16 02:01:14;;;;;;;12.73;10.00;;;21.10;98.70;;;;;;5073713;28;20471;-69
2022/06/16 02:03:48;;;;;;;20.60;9.20;;;21.10;99.40;;;;;;5076831;28;20511;-70
2022/06/16 02:06:23;;;;;;;16.67;9.00;;;21.10;99.90;;;;;;5076388;28;21049;-69
2022/06/16 02:08:55;;;;;;;16.43;10.20;;;21.10;99.90;;;;;;5075975;28;20545;-69
2022/06/16 02:11:26;;;;;;;10.63;9.63;;;21.00;99.90;;;;;;5075972;28;20400;-69
2022/06/16 02:14:14;;;;;;;12.03;9.50;;;21.00;99.90;;;;;;5076685;28;20463;-68
2022/06/16 02:16:41;;;;;;;15.03;9.23;;;21.00;99.90;;;;;;5070297;28;21140;-68
2022/06/16 02:19:14;;;;;;;9.57;8.67;;;21.00;99.90;;;;;;5065429;28;20599;-68
2022/06/16 02:21:49;;;;;;;15.17;8.80;;;21.00;99.90;;;;;;5049859;28;20414;-68
2022/06/16 02:24:22;;;;;;;9.37;8.23;;;20.90;99.90;;;;;;5050414;28;20428;-68
2022/06/16 02:26:49;;;;;;;17.37;8.97;;;20.90;99.90;;;;;;5050269;28;20498;-70
2022/06/16 02:29:33;;;;;;;21.67;8.77;;;20.90;99.90;;;;;;5049590;28;20429;-70
2022/06/16 02:32:32;;;;;;;12.80;9.37;;;20.80;99.90;;;;;;5050085;28;20402;-67
2022/06/16 02:35:04;;;;;;;14.07;8.67;;;20.70;99.90;;;;;;5049931;28;20437;-68
2022/06/16 02:38:08;;;;;;;13.83;8.90;;;20.70;99.90;;;;;;5049129;28;20471;-68
2022/06/16 02:41:15;;;;;;;14.40;8.20;;;20.70;99.90;;;;;;5049342;28;20531;-69
2022/06/16 02:44:14;;;;;;;29.03;11.77;;;20.60;99.90;;;;;;5040769;28;20473;-67
2022/06/16 02:47:15;;;;;;;16.47;9.00;;;20.60;99.90;;;;;;5049583;28;20778;-67
2022/06/16 02:50:02;;;;;;;37.37;9.97;;;20.60;99.90;;;;;;5036171;28;20524;-69
2022/06/16 02:52:38;;;;;;;16.53;7.60;;;20.70;99.90;;;;;;5030266;28;20441;-68
2022/06/16 02:55:21;;;;;;;10.17;7.83;;;20.60;99.90;;;;;;5029569;28;20426;-67
2022/06/16 02:57:53;;;;;;;19.63;8.33;;;20.40;99.90;;;;;;5029711;28;20863;-67
2022/06/16 03:00:27;;;;;;;20.83;7.47;;;20.40;99.90;;;;;;5065185;28;20460;-69
2022/06/16 03:02:52;;;;;;;20.50;8.17;;;20.30;99.90;;;;;;5069510;28;20535;-68
2022/06/16 03:05:18;;;;;;;28.63;9.30;;;20.30;99.90;;;;;;5069902;28;20499;-68
2022/06/16 03:07:45;;;;;;;29.17;9.73;;;20.40;99.90;;;;;;5068810;28;20268;-69
2022/06/16 03:10:13;;;;;;;10.80;8.70;;;20.30;99.90;;;;;;5068850;28;20194;-68
2022/06/16 03:12:39;;;;;;;11.63;8.03;;;20.40;99.90;;;;;;5069655;28;20409;-68
2022/06/16 03:15:05;;;;;;;16.73;8.83;;;20.30;99.90;;;;;;5069805;28;20481;-68
2022/06/16 03:17:31;;;;;;;18.10;8.17;;;20.30;99.90;;;;;;5068719;28;20175;-69
2022/06/16 03:19:58;;;;;;;20.03;8.10;;;20.30;99.90;;;;;;5059097;28;20546;-67
2022/06/16 03:22:24;;;;;;;30.63;11.03;;;20.30;99.90;;;;;;5048891;28;20538;-68
2022/06/16 03:24:50;;;;;;;23.80;9.80;;;20.30;99.90;;;;;;5049532;28;20455;-69
2022/06/16 03:27:16;;;;;;;19.23;8.67;;;20.30;99.90;;;;;;5047389;28;20505;-68
2022/06/16 03:29:42;;;;;;;24.17;9.50;;;20.20;99.90;;;;;;5048433;28;20517;-69
2022/06/16 03:32:08;;;;;;;21.57;9.30;;;20.20;99.90;;;;;;5049409;28;20897;-68
2022/06/16 03:34:33;;;;;;;19.73;10.00;;;20.10;99.90;;;;;;5049329;28;20171;-69
2022/06/16 03:37:02;;;;;;;34.10;10.10;;;20.10;99.90;;;;;;5048720;28;20233;-69
2022/06/16 03:39:27;;;;;;;20.50;9.70;;;20.00;99.90;;;;;;5048585;28;20198;-69
2022/06/16 03:41:53;;;;;;;21.23;9.17;;;20.00;99.90;;;;;;5049794;28;20437;-67
2022/06/16 03:44:19;;;;;;;37.87;11.13;;;20.10;99.90;;;;;;5049470;28;20175;-67
2022/06/16 03:46:44;;;;;;;19.47;8.70;;;20.20;99.90;;;;;;5048279;28;20219;-68
2022/06/16 03:49:10;;;;;;;21.60;9.77;;;20.10;99.90;;;;;;5049303;28;20163;-69
2022/06/16 03:51:36;;;;;;;36.53;10.40;;;20.10;99.90;;;;;;5049064;28;20257;-68
2022/06/16 03:54:02;;;;;;;23.40;9.77;;;20.10;99.90;;;;;;5050141;28;20171;-67
2022/06/16 03:56:29;;;;;;;19.83;9.70;;;20.20;99.90;;;;;;5047319;28;20171;-69
2022/06/16 03:58:56;;;;;;;9.57;8.60;;;20.30;99.90;;;;;;5054942;28;20408;-68
2022/06/16 04:01:22;;;;;;;11.73;9.20;;;20.50;99.90;;;;;;5068931;28;20412;-68
2022/06/16 04:03:59;;;;;;;10.07;9.07;;;20.50;99.90;;;;;;5069702;28;20467;-68
2022/06/16 04:06:27;;;;;;;10.83;9.93;;;20.50;99.90;;;;;;5068736;28;20871;-67
2022/06/16 04:08:53;;;;;;;18.97;10.00;;;20.60;99.90;;;;;;5068574;28;20393;-69
2022/06/16 04:11:27;;;;;;;16.90;12.00;;;20.60;99.90;;;;;;5068391;28;20405;-67
2022/06/16 04:14:14;;;;;;;19.80;11.17;;;20.70;99.90;;;;;;5069134;28;20507;-68
2022/06/16 04:16:46;;;;;;;21.33;10.90;;;20.80;99.90;;;;;;5067537;28;20413;-68
2022/06/16 04:19:15;;;;;;;15.53;9.90;;;20.90;99.90;;;;;;5063873;28;20539;-69
2022/06/16 04:21:43;;;;;;;23.17;10.20;;;20.90;99.90;;;;;;5048538;28;20410;-69
2022/06/16 04:24:09;;;;;;;13.63;9.20;;;20.90;99.90;;;;;;5049251;28;20630;-69
2022/06/16 04:26:39;;;;;;;14.20;9.03;;;20.90;99.90;;;;;;5048403;28;20928;-68
2022/06/16 04:29:09;;;;;;;11.63;8.60;;;21.00;99.90;;;;;;5045941;28;20401;-67
2022/06/16 04:31:36;;;;;;;22.43;10.43;;;21.10;99.90;;;;;;5047798;28;20489;-69
2022/06/16 04:34:02;;;;;;;13.50;9.20;;;21.30;99.90;;;;;;5049278;28;20413;-68
2022/06/16 04:36:28;;;;;;;24.90;10.07;;;21.40;99.90;;;;;;5048746;28;21060;-68
2022/06/16 04:38:54;;;;;;;23.87;8.90;;;21.20;99.90;;;;;;5049162;28;20171;-69
2022/06/16 04:41:21;;;;;;;22.87;9.40;;;21.10;99.90;;;;;;5055897;28;20460;-68
2022/06/16 04:43:47;;;;;;;21.07;9.60;;;20.90;99.90;;;;;;5053204;28;20507;-69
2022/06/16 04:46:14;;;;;;;18.07;8.93;;;20.70;99.90;;;;;;5051618;28;20405;-68
2022/06/16 04:48:40;;;;;;;28.10;10.40;;;20.60;99.90;;;;;;5050348;28;20163;-68
2022/06/16 04:51:06;;;;;;;27.40;9.30;;;20.50;99.90;;;;;;5049692;28;20437;-69
2022/06/16 04:53:32;;;;;;;20.53;9.23;;;20.50;99.90;;;;;;5048207;28;20410;-68
2022/06/16 04:56:00;;;;;;;17.57;10.43;;;20.40;99.90;;;;;;5048569;28;20179;-68
2022/06/16 04:58:27;;;;;;;28.23;10.03;;;20.30;99.90;;;;;;5049689;28;20413;-68
2022/06/16 05:00:54;;;;;;;10.63;9.43;;;20.30;99.90;;;;;;5069399;28;20428;-67
2022/06/16 05:03:21;;;;;;;13.53;9.43;;;20.40;99.90;;;;;;5072133;28;20457;-68
2022/06/16 05:05:49;;;;;;;16.13;8.90;;;20.50;99.90;;;;;;5078863;28;20594;-68
2022/06/16 05:08:17;;;;;;;41.27;10.80;;;20.60;99.90;;;;;;5082193;28;20763;-67
2022/06/16 05:10:45;;;;;;;21.43;10.47;;;21.00;99.90;;;;;;5082329;28;20507;-69
2022/06/16 05:13:11;;;;;;;22.10;9.83;;;21.10;99.90;;;;;;5082088;28;20425;-69
2022/06/16 05:15:37;;;;;;;19.77;9.07;;;21.00;99.90;;;;;;5082421;28;20434;-69
2022/06/16 05:18:03;;;;;;;54.63;12.53;;;20.90;99.90;;;;;;5089259;28;20170;-68
2022/06/16 05:20:29;;;;;;;18.60;10.10;;;20.80;99.90;;;;;;5073783;28;20210;-68
2022/06/16 05:22:55;;;;;;;14.70;9.40;;;20.90;99.90;;;;;;5070656;28;20571;-68
2022/06/16 05:25:20;;;;;;;19.50;10.00;;;21.00;99.90;;;;;;5061666;28;20175;-69
2022/06/16 05:27:46;;;;;;;10.60;8.37;;;21.20;99.90;;;;;;5051170;28;20174;-69
2022/06/16 05:30:14;;;;;;;14.97;9.23;;;21.10;99.90;;;;;;5047974;28;20198;-68
2022/06/16 05:32:40;;;;;;;30.13;9.87;;;21.10;99.90;;;;;;5048028;28;20326;-68
2022/06/16 05:35:06;;;;;;;30.90;9.83;;;21.10;99.90;;;;;;5048106;28;20436;-69
2022/06/16 05:37:32;;;;;;;22.27;10.50;;;21.10;99.90;;;;;;5047692;28;20409;-68
2022/06/16 05:39:58;;;;;;;35.10;10.80;;;21.00;99.90;;;;;;5047209;28;20814;-68
2022/06/16 05:42:23;;;;;;;11.70;9.47;;;20.90;99.90;;;;;;5048227;28;20449;-68
2022/06/16 05:44:49;;;;;;;10.60;8.83;;;20.80;99.90;;;;;;5048139;28;20273;-67
2022/06/16 05:47:15;;;;;;;19.93;10.27;;;20.70;99.90;;;;;;5047823;28;20181;-68
2022/06/16 05:49:42;;;;;;;9.80;8.80;;;20.90;99.90;;;;;;5048056;28;20282;-68
2022/06/16 05:52:09;;;;;;;9.87;8.87;;;21.10;99.90;;;;;;5047851;28;20179;-68
2022/06/16 05:54:35;;;;;;;11.17;9.70;;;21.10;99.90;;;;;;5047685;28;20439;-67
2022/06/16 05:57:01;;;;;;;16.47;8.70;;;21.10;99.90;;;;;;5046406;28;20408;-68
2022/06/16 05:59:26;;;;;;;15.77;9.27;;;21.00;99.90;;;;;;5057399;28;20547;-68
2022/06/16 06:01:52;;;;;;;35.83;11.87;;;21.10;99.90;;;;;;5067667;28;20182;-69
2022/06/16 06:04:18;;;;;;;30.13;10.80;;;21.20;99.90;;;;;;5068404;28;20197;-69
2022/06/16 06:06:43;;;;;;;19.50;10.37;;;21.20;99.90;;;;;;5067636;28;20167;-69
2022/06/16 06:17:23;;;;;;;16.07;10.77;;;21.50;99.90;;;;;;5071111;28;20484;-68
2022/06/16 06:19:52;;;;;;;14.07;9.90;;;21.80;99.90;;;;;;5062397;28;20425;-68
2022/06/16 06:22:19;;;;;;;10.60;9.53;;;22.20;99.90;;;;;;5050945;28;20507;-68
2022/06/16 06:24:47;;;;;;;17.70;10.90;;;22.50;99.90;;;;;;5051666;28;20436;-68
2022/06/16 06:27:15;;;;;;;15.50;9.77;;;22.90;99.90;;;;;;5050081;28;20959;-68
2022/06/16 06:29:42;;;;;;;26.90;11.00;;;23.30;99.90;;;;;;5050770;28;20469;-67
2022/06/16 06:32:09;;;;;;;19.83;10.93;;;23.70;99.90;;;;;;5050820;28;20413;-67
2022/06/16 06:34:35;;;;;;;14.83;9.83;;;24.10;99.90;;;;;;5051725;28;20909;-70
2022/06/16 06:37:01;;;;;;;10.27;9.27;;;24.20;99.90;;;;;;5050746;28;20410;-68
2022/06/16 06:39:27;;;;;;;13.93;9.37;;;24.00;99.90;;;;;;5051031;28;20278;-69
2022/06/16 06:41:53;;;;;;;22.37;9.97;;;24.20;99.90;;;;;;5050433;28;20408;-68
2022/06/16 06:44:19;;;;;;;20.87;9.70;;;24.40;99.90;;;;;;5051268;28;20265;-69
2022/06/16 06:46:44;;;;;;;25.30;10.90;;;24.20;99.90;;;;;;5050407;28;21042;-67
2022/06/16 06:49:10;;;;;;;14.43;9.13;;;24.10;99.90;;;;;;5050279;28;20170;-68
2022/06/16 06:51:36;;;;;;;21.70;10.20;;;24.50;99.90;;;;;;5050107;28;20174;-67
2022/06/16 06:54:03;;;;;;;9.87;8.80;;;24.80;99.90;;;;;;5051172;28;20167;-68
2022/06/16 06:56:30;;;;;;;11.13;8.70;;;25.10;99.90;;;;;;5050129;28;20170;-67
2022/06/16 06:58:58;;;;;;;13.70;8.40;;;25.10;99.90;;;;;;5057050;28;20420;-67
2022/06/16 07:01:24;;;;;;;16.63;8.47;;;24.90;99.90;;;;;;5070189;28;20396;-68
2022/06/16 07:03:50;;;;;;;18.10;10.03;;;24.60;99.90;;;;;;5070962;28;20451;-69
2022/06/16 07:06:18;;;;;;;13.70;9.67;;;24.50;99.90;;;;;;5070610;28;20308;-68
2022/06/16 07:08:43;;;;;;;17.77;10.47;;;24.20;99.90;;;;;;5069965;28;20651;-68
2022/06/16 07:11:09;;;;;;;14.73;9.90;;;24.10;99.90;;;;;;5070450;28;20500;-68
2022/06/16 07:13:35;;;;;;;22.47;10.13;;;23.80;99.90;;;;;;5071276;28;20178;-68
2022/06/16 07:16:01;;;;;;;20.13;9.07;;;23.60;99.90;;;;;;5072970;28;20416;-69
2022/06/16 07:18:27;;;;;;;17.17;9.10;;;23.50;99.90;;;;;;5071269;28;20488;-69
2022/06/16 07:20:53;;;;;;;11.77;8.43;;;23.50;99.90;;;;;;5053779;28;20516;-69
2022/06/16 07:23:19;;;;;;;20.30;9.77;;;23.60;99.90;;;;;;5052869;28;20535;-69
2022/06/16 07:25:47;;;;;;;29.70;8.97;;;24.00;99.90;;;;;;5053268;28;20181;-68
2022/06/16 07:28:12;;;;;;;16.83;8.30;;;24.10;99.90;;;;;;5052055;28;20282;-70
2022/06/16 07:30:38;;;;;;;13.00;8.83;;;24.30;99.90;;;;;;5050874;28;20548;-69
2022/06/16 07:33:04;;;;;;;12.37;9.30;;;24.60;99.90;;;;;;5050056;28;20171;-69
2022/06/16 07:35:30;;;;;;;31.47;9.40;;;24.70;99.90;;;;;;5050090;28;20636;-69
2022/06/16 07:37:56;;;;;;;21.60;8.67;;;24.80;99.90;;;;;;5049091;28;20186;-70
2022/06/16 07:40:22;;;;;;;26.50;11.50;;;24.90;99.90;;;;;;5053613;22;20296;-68
2022/06/16 07:42:49;;;;;;;31.13;8.50;;;25.10;99.90;;;;;;5029869;28;20203;-68
2022/06/16 07:45:15;;;;;;;32.53;8.90;;;25.20;99.90;;;;;;5029561;28;20457;-69
2022/06/16 07:47:41;;;;;;;15.90;8.20;;;25.30;99.90;;;;;;5029190;28;20402;-69
2022/06/16 07:50:08;;;;;;;12.73;8.07;;;25.30;99.90;;;;;;5029361;28;20188;-69
2022/06/16 07:52:35;;;;;;;12.57;7.90;;;25.30;99.90;;;;;;5028096;28;20177;-68
2022/06/16 07:55:01;;;;;;;13.23;7.90;;;25.30;99.90;;;;;;5028845;28;20410;-69
2022/06/16 07:57:27;;;;;;;9.47;7.17;;;25.30;99.90;;;;;;5028162;28;21111;-69
2022/06/16 07:59:54;;;;;;;17.27;7.30;;;25.50;99.90;;;;;;5043296;28;20206;-68
2022/06/16 08:02:20;;;;;;;13.47;7.43;;;26.00;99.90;;;;;;5048480;28;20441;-69
2022/06/16 08:04:46;;;;;;;16.97;6.80;;;26.20;99.90;;;;;;5049416;28;20497;-69
2022/06/16 08:07:12;;;;;;;11.03;7.10;;;26.40;99.90;;;;;;5047866;28;20504;-69
2022/06/16 08:09:39;;;;;;;8.67;6.97;;;26.70;99.90;;;;;;5048717;28;20261;-68
2022/06/16 08:12:08;;;;;;;8.70;6.10;;;26.80;99.90;;;;;;5048059;28;20405;-68
2022/06/16 08:14:38;;;;;;;13.73;7.60;;;26.50;99.90;;;;;;5048652;28;20436;-70
2022/06/16 08:17:06;;;;;;;10.70;6.50;;;26.10;99.90;;;;;;5047533;28;20411;-70
2022/06/16 08:19:32;;;;;;;13.57;6.60;;;25.90;99.90;;;;;;5048097;28;20413;-69
2022/06/16 08:21:58;;;;;;;9.40;6.13;;;26.10;99.90;;;;;;5047951;28;20452;-68
2022/06/16 08:24:24;;;;;;;12.40;6.33;;;26.60;99.90;;;;;;5048660;28;20178;-69
2022/06/16 08:26:49;;;;;;;17.10;7.90;;;26.90;99.90;;;;;;5038769;28;20198;-69
2022/06/16 08:29:17;;;;;;;15.13;6.77;;;27.20;99.90;;;;;;5028411;28;20167;-68
2022/06/16 08:31:43;;;;;;;14.03;7.37;;;27.40;99.90;;;;;;5028062;28;20211;-69
2022/06/16 08:34:09;;;;;;;17.63;6.80;;;27.60;99.90;;;;;;5028568;28;20413;-68
2022/06/16 08:36:35;;;;;;;20.53;7.00;;;27.40;99.90;;;;;;5028038;28;20863;-67
2022/06/16 08:39:04;;;;;;;12.37;7.60;;;27.20;99.90;;;;;;5028264;28;20215;-69
2022/06/16 08:41:30;;;;;;;10.93;6.43;;;27.50;99.90;;;;;;5027917;28;20860;-68
2022/06/16 08:44:07;;;;;;;17.00;7.83;;;27.70;99.90;;;;;;5029211;28;20540;-69
2022/06/16 08:46:39;;;;;;;12.27;6.73;;;27.70;99.90;;;;;;5028126;28;20221;-69
2022/06/16 08:49:13;;;;;;;10.47;6.97;;;27.90;99.90;;;;;;5028160;28;20409;-70
2022/06/16 08:52:02;;;;;;;11.50;6.63;;;28.30;99.90;;;;;;5028112;28;20410;-69
2022/06/16 08:54:44;;;;;;;15.37;7.07;;;28.60;99.90;;;;;;5028814;28;20440;-69
2022/06/16 08:57:10;;;;;;;19.43;7.70;;;28.70;99.90;;;;;;5028862;28;20492;-68
2022/06/16 08:59:38;;;;;;;22.73;7.80;;;28.70;99.90;;;;;;5041871;28;20476;-69
2022/06/16 09:02:24;;;;;;;10.40;7.20;;;28.50;99.90;;;;;;5048873;28;20175;-70
2022/06/16 09:04:56;;;;;;;10.33;6.23;;;28.40;99.90;;;;;;5049066;28;20417;-68
2022/06/16 09:07:59;;;;;;;7.27;6.30;;;28.20;99.90;;;;;;5047328;28;20437;-68
2022/06/16 09:10:41;;;;;;;8.40;7.07;;;28.40;99.90;;;;;;5047474;28;20501;-69
2022/06/16 09:13:36;;;;;;;9.40;7.00;;;28.70;99.90;;;;;;5048784;28;20417;-69
2022/06/16 09:16:02;;;;;;;18.67;8.27;;;28.80;99.90;;;;;;5047991;28;20879;-69
2022/06/16 09:19:07;;;;;;;9.17;6.30;;;28.90;99.90;;;;;;5047310;28;20435;-68
2022/06/16 09:21:51;;;;;;;8.93;6.10;;;29.10;96.00;;;;;;5028725;28;20588;-69
2022/06/16 09:24:46;;;;;;;5.47;4.80;;;29.10;90.50;;;;;;5028556;28;20456;-69
2022/06/16 09:27:18;;;;;;;5.60;4.80;;;29.10;66.90;;;;;;5027091;28;20440;-68
2022/06/16 09:29:58;;;;;;;14.47;5.40;;;29.30;57.50;;;;;;5028054;28;20422;-70
2022/06/16 09:32:24;;;;;;;6.60;5.00;;;29.40;49.70;;;;;;5027956;28;20417;-69
2022/06/16 09:35:03;;;;;;;4.50;3.90;;;29.20;42.80;;;;;;5028936;28;20452;-68
2022/06/16 09:38:02;;;;;;;6.27;4.67;;;29.20;36.60;;;;;;5027359;28;20213;-69
2022/06/16 09:40:44;;;;;;;5.87;5.07;;;29.30;31.50;;;;;;5027544;28;20944;-70
2022/06/16 09:43:15;;;;;;;6.10;4.57;;;29.20;28.70;;;;;;5028267;28;20878;-68
2022/06/16 09:46:10;;;;;;;9.60;5.27;;;29.20;26.50;;;;;;5030854;28;20632;-69
2022/06/16 09:48:46;;;;;;;5.93;5.40;;;29.40;25.10;;;;;;5013434;28;20446;-69
2022/06/16 09:51:33;;;;;;;5.97;4.07;;;29.60;21.90;;;;;;5032046;28;20421;-68
2022/06/16 09:54:22;;;;;;;7.37;4.50;;;29.50;18.60;;;;;;5031728;28;20409;-69
2022/06/16 09:57:11;;;;;;;6.80;5.33;;;29.50;17.10;;;;;;5031510;28;20441;-69
2022/06/16 09:59:55;;;;;;;6.20;5.03;;;29.60;14.50;;;;;;5037957;28;20822;-69
2022/06/16 10:03:02;;;;;;;9.50;5.17;;;29.60;12.40;;;;;;5052703;28;20440;-72
2022/06/16 10:05:52;;;;;;;5.70;5.20;;;29.90;10.40;;;;;;5051289;28;20408;-69
2022/06/16 10:08:33;;;;;;;7.50;6.47;;;29.60;6.40;;;;;;5048878;28;20561;-69
2022/06/16 10:11:07;;;;;;;6.73;5.67;;;29.60;4.40;;;;;;5051045;28;20420;-70
2022/06/16 10:13:46;;;;;;;8.30;6.73;;;29.30;12.20;;;;;;5051631;28;20445;-69
2022/06/16 10:16:19;;;;;;;6.37;5.77;;;29.10;1.00;;;;;;5049794;28;21022;-70
2022/06/16 10:18:46;;;;;;;6.53;5.93;;;29.30;1.00;;;;;;5049890;28;20491;-69
2022/06/16 10:21:13;;;;;;;10.37;6.70;;;29.40;1.00;;;;;;5051598;28;20429;-69
2022/06/16 10:23:44;;;;;;;7.00;6.27;;;29.70;1.00;;;;;;5051251;28;20544;-69
2022/06/16 10:26:11;;;;;;;13.60;6.37;;;29.90;1.00;;;;;;5047707;28;20410;-69
2022/06/16 10:28:59;;;;;;;12.03;6.13;;;29.90;1.00;;;;;;5030588;28;20406;-69
2022/06/16 10:31:45;;;;;;;8.17;6.53;;;29.90;1.00;;;;;;5030513;28;20501;-68
2022/06/16 10:34:29;;;;;;;12.07;5.30;;;30.00;1.00;;;;;;5031307;28;20390;-68
2022/06/16 10:37:26;;;;;;;6.03;4.83;;;30.00;1.00;;;;;;5030377;28;20904;-69
2022/06/16 10:40:00;;;;;;;17.00;6.40;;;30.20;1.00;;;;;;5030659;28;20594;-70
2022/06/16 10:42:33;;;;;;;10.67;6.47;;;30.10;1.00;;;;;;5030197;28;20511;-69
2022/06/16 10:45:05;;;;;;;8.23;6.10;;;30.30;1.00;;;;;;5031234;28;20394;-70
2022/06/16 10:47:40;;;;;;;8.23;5.80;;;30.30;1.00;;;;;;5030207;28;20912;-71
2022/06/16 10:50:14;;;;;;;12.53;5.63;;;30.30;1.00;;;;;;5030344;28;20429;-69
2022/06/16 10:52:49;;;;;;;5.90;4.93;;;30.20;1.00;;;;;;5029571;28;20433;-69
2022/06/16 10:55:22;;;;;;;6.80;4.50;;;30.30;1.00;;;;;;5030030;28;20404;-68
2022/06/16 10:58:04;;;;;;;9.20;3.63;;;30.20;1.00;;;;;;5029871;28;20406;-69
2022/06/16 11:00:33;;;;;;;5.47;3.77;;;30.10;1.00;;;;;;5049796;28;20444;-69
2022/06/16 11:03:18;;;;;;;9.43;3.80;;;30.10;1.00;;;;;;5049832;28;20543;-69
2022/06/16 11:05:57;;;;;;;11.07;3.83;;;30.10;1.00;;;;;;5050508;28;20407;-70
2022/06/16 11:08:25;;;;;;;5.00;3.60;;;30.30;1.00;;;;;;5049190;28;20797;-69
2022/06/16 11:10:55;;;;;;;7.33;4.20;;;30.40;1.00;;;;;;5050364;28;20784;-70
2022/06/16 11:13:26;;;;;;;5.17;3.90;;;30.30;1.00;;;;;;5049926;28;20409;-68
2022/06/16 11:15:53;;;;;;;5.40;4.90;;;30.40;1.00;;;;;;5050590;28;20397;-66
2022/06/16 11:18:22;;;;;;;7.20;5.83;;;30.40;1.00;;;;;;5049898;28;20408;-69
2022/06/16 11:20:55;;;;;;;6.60;4.37;;;30.20;1.00;;;;;;5050218;28;20796;-70
2022/06/16 11:23:21;;;;;;;8.20;5.20;;;29.90;1.00;;;;;;5049775;28;20919;-68
2022/06/16 11:25:53;;;;;;;6.33;4.87;;;30.00;1.00;;;;;;5049215;28;20519;-69
2022/06/16 11:28:24;;;;;;;8.47;4.93;;;30.00;1.00;;;;;;5029817;28;20183;-68
2022/06/16 11:30:49;;;;;;;7.60;4.53;;;30.00;1.00;;;;;;5030353;28;20422;-70
2022/06/16 11:36:25;;;;;;;7.03;5.20;;;29.90;1.00;;;;;;5030412;28;20182;-68
2022/06/16 11:39:21;;;;;;;10.77;5.83;;;30.00;1.00;;;;;;5029530;28;20409;-69
2022/06/16 11:41:50;;;;;;;8.30;4.73;;;30.00;1.00;;;;;;5029555;28;20922;-69
2022/06/16 11:44:36;;;;;;;9.73;5.10;;;30.00;1.00;;;;;;5030031;28;20476;-70
2022/06/16 11:47:22;;;;;;;5.30;4.90;;;29.90;1.00;;;;;;5029252;28;20856;-69
2022/06/16 11:50:04;;;;;;;8.23;5.83;;;29.60;1.00;;;;;;5029189;28;20540;-69
2022/06/16 11:52:45;;;;;;;9.40;6.50;;;29.60;1.00;;;;;;5009640;28;20433;-67
2022/06/16 11:55:19;;;;;;;13.97;6.40;;;29.50;1.00;;;;;;5010848;28;20451;-69
2022/06/16 11:57:54;;;;;;;6.27;5.67;;;29.50;1.00;;;;;;5029111;28;20421;-69
2022/06/16 12:00:23;;;;;;;6.40;5.40;;;29.50;1.00;;;;;;5046982;28;20940;-69
2022/06/16 12:03:18;;;;;;;7.57;6.57;;;29.60;1.00;;;;;;5049579;28;20510;-68
2022/06/16 12:06:10;;;;;;;5.70;5.20;;;29.60;1.00;;;;;;5053803;28;20397;-69
2022/06/16 12:08:43;;;;;;;8.07;6.10;;;29.60;1.00;;;;;;5048049;28;20905;-71
2022/06/16 12:11:15;;;;;;;6.00;5.43;;;29.50;1.00;;;;;;5049430;28;20421;-72
2022/06/16 12:14:07;;;;;;;7.43;5.80;;;29.50;1.00;;;;;;5053545;28;20405;-69
2022/06/16 12:16:39;;;;;;;11.83;6.20;;;29.50;1.00;;;;;;5053201;28;20386;-69
2022/06/16 12:19:50;;;;;;;10.80;5.90;;;29.50;1.00;;;;;;5044905;28;20440;-69
2022/06/16 12:22:58;;;;;;;10.03;5.40;;;29.50;1.00;;;;;;5011768;28;20428;-68
2022/06/16 12:25:45;;;;;;;6.03;5.43;;;29.60;1.00;;;;;;4986085;28;20427;-69
2022/06/16 12:28:46;;;;;;;8.57;5.13;;;29.60;1.00;;;;;;4986159;28;20408;-70
2022/06/16 12:31:14;;;;;;;5.53;4.30;;;29.70;1.00;;;;;;4986988;28;20423;-68
2022/06/16 12:34:18;;;;;;;9.47;5.30;;;29.70;1.00;;;;;;4987019;28;20407;-69
2022/06/16 12:36:51;;;;;;;8.17;4.97;;;29.60;1.00;;;;;;4986355;28;20557;-69
2022/06/16 12:39:27;;;;;;;6.83;4.70;;;29.70;1.00;;;;;;4986164;28;20547;-69
2022/06/16 12:42:00;;;;;;;15.73;6.10;;;29.80;1.00;;;;;;4986550;28;20579;-68
2022/06/16 12:44:35;;;;;;;8.03;4.37;;;29.70;1.00;;;;;;4986955;28;20677;-69
2022/06/16 12:47:12;;;;;;;8.40;5.17;;;29.60;1.00;;;;;;4985423;28;20495;-69
2022/06/16 12:50:04;;;;;;;12.63;4.20;;;29.60;1.00;;;;;;4985963;28;20916;-69
2022/06/16 12:52:30;;;;;;;8.00;5.07;;;29.50;1.00;;;;;;5005637;28;20414;-69
2022/06/16 12:55:10;;;;;;;7.73;4.40;;;29.60;1.00;;;;;;5006360;28;20442;-69
2022/06/16 12:57:58;;;;;;;5.67;4.50;;;29.60;1.00;;;;;;4985805;28;20238;-69
2022/06/16 13:00:30;;;;;;;7.80;4.63;;;29.60;1.00;;;;;;5044701;28;20444;-70
2022/06/16 13:03:15;;;;;;;5.90;4.43;;;29.60;1.00;;;;;;5047683;28;20464;-69
2022/06/16 13:05:42;;;;;;;5.93;4.50;;;29.50;1.00;;;;;;5048406;28;20401;-69
2022/06/16 13:08:09;;;;;;;6.13;5.53;;;29.50;1.00;;;;;;5046821;28;20422;-69
2022/06/16 13:10:40;;;;;;;5.70;5.10;;;29.50;1.00;;;;;;5047877;28;20530;-69
2022/06/16 13:13:08;;;;;;;6.40;5.10;;;29.60;1.00;;;;;;5048319;28;20392;-69
2022/06/16 13:15:43;;;;;;;7.47;6.23;;;29.60;1.00;;;;;;5048008;28;20446;-68
2022/06/16 13:18:14;;;;;;;11.80;5.33;;;29.70;1.00;;;;;;5046630;28;20408;-68
2022/06/16 13:20:44;;;;;;;5.20;4.70;;;29.70;1.00;;;;;;5051912;28;20850;-68
2022/06/16 13:23:18;;;;;;;6.23;4.90;;;29.50;1.00;;;;;;5051716;28;20452;-68
2022/06/16 13:25:51;;;;;;;6.33;5.33;;;29.40;1.00;;;;;;5051820;28;20769;-69